KASH/ASH METAR and TAF weather

Enter ICAO airport designator
Station Type Date Time Source
KASH METAR 2020/12/01 20:56 UTC NOAA

KASH 012056Z VRB05G14KT 10SM FEW060 13/02 A2951 RMK AO2 SLP997 T01280017 53020


Station Type Date Time Source
KASH Decoded METAR 2020/12/01 20:56 UTC NOAA

Nashua, Boire Field Airport, NH, United States (KASH) 42-46-54N 071-30-53W
Dec 01, 2020 - 03:56 PM EST / 2020.12.01 2056 UTC
Wind: Variable at 6 MPH (5 KT) gusting to 16 MPH (14 KT):0
Visibility: 10 mile(s):0
Sky conditions: mostly clear
Temperature: 55.0 F (12.8 C)
Dew Point: 35.1 F (1.7 C)
Relative Humidity: 46%
Pressure (altimeter): 29.51 in. Hg (999 hPa)
Pressure tendency: 0.06 inches (2.0 hPa) higher than three hours ago
ob: KASH 012056Z VRB05G14KT 10SM FEW060 13/02 A2951 RMK AO2 SLP997 T01280017 53020
cycle: 21

Station Type Date Time Source
KASH TAF UTC NOAA

Error!

Example: see airport list